Lanaken, Belgium
Current Conditions -  °F | °C
As of 7:25 PM on Wednesday 26 Nov 2014 (Local Time) from EHBK Reporting Station
Haze Haze  
Wind Chill: 39°   Ceiling: 1200
Heat Index: 43°   Visibility: 3mi
Dew Point: 43°   Wind: 7mph
Humidity: 100%   Direction: 100°E
Pressure: 29.85"   Gusts: NA
Location:  50.89°N, 5.65°E
Report Text: EHBK 261825Z AUTO 10006KT 5000 BR OVC012 06/06 Q1011 BECMG 4000BR
Loading
Personal Weather Stations






























Interactive Weather Map New forecast layout! Learn more

10-Day Weather Forecast

Advertisements
Track Severe Weather on mobile